Time;durP1;ratioP1;P1;durP2;ratioP2;P2;SDS_P1;SDS_P2;PMS_P1;PMS_P2;Temp;Humidity;BMP_temperature;BMP_pressure;BME280_temperature;BME280_humidity;BME280_pressure;Samples;Min_cycle;Max_cycle;Signal;HPM_P1;HPM_P2
2023/09/18 00:02:09;;;;;;;4.13;2.10;;;;;;;24.01;56.66;99469.78;5056111;28;20185;-87
2023/09/18 00:04:35;;;;;;;5.10;2.40;;;;;;;23.97;56.91;99473.78;5045526;28;20601;-87
2023/09/18 00:07:02;;;;;;;4.43;2.10;;;;;;;23.95;57.20;99465.03;5075896;28;20197;-87
2023/09/18 00:09:27;;;;;;;4.97;2.50;;;;;;;23.96;57.42;99460.53;5075726;28;20259;-87
2023/09/18 00:11:53;;;;;;;6.53;2.13;;;;;;;24.00;57.12;99461.91;5075503;28;20571;-87
2023/09/18 00:14:19;;;;;;;4.57;2.00;;;;;;;23.99;57.07;99463.75;5058201;28;20173;-87
2023/09/18 00:16:45;;;;;;;5.77;1.90;;;;;;;24.01;56.62;99458.22;5076275;28;20260;-87
2023/09/18 00:19:11;;;;;;;3.97;1.67;;;;;;;24.00;56.87;99461.91;5058118;28;20180;-87
2023/09/18 00:21:38;;;;;;;4.77;1.80;;;;;;;24.01;56.89;99461.72;5075806;28;20252;-87
2023/09/18 00:24:05;;;;;;;4.50;2.20;;;;;;;24.02;56.85;99451.88;5057783;28;20187;-87
2023/09/18 00:26:31;;;;;;;3.70;1.80;;;;;;;24.00;56.96;99452.03;5075864;28;20195;-87
2023/09/18 00:28:56;;;;;;;7.63;2.40;;;;;;;23.99;56.94;99455.69;5076072;28;20258;-87
2023/09/18 00:31:23;;;;;;;6.33;2.17;;;;;;;23.98;56.98;99451.34;5075408;28;20185;-87
2023/09/18 00:33:50;;;;;;;9.07;2.00;;;;;;;23.98;57.01;99454.00;5057854;28;20188;-87
2023/09/18 00:36:17;;;;;;;4.27;2.00;;;;;;;24.02;57.12;99451.88;5075125;28;20181;-87
2023/09/18 00:38:44;;;;;;;6.93;2.13;;;;;;;24.04;56.94;99447.19;5057791;28;20166;-87
2023/09/18 00:41:09;;;;;;;6.27;2.10;;;;;;;24.04;56.84;99447.19;5075407;28;20168;-87
2023/09/18 00:43:34;;;;;;;4.50;1.67;;;;;;;24.01;56.70;99447.50;5057668;28;20506;-87
2023/09/18 00:46:00;;;;;;;6.00;2.03;;;;;;;24.00;56.92;99456.53;5075309;28;20211;-87
2023/09/18 00:48:27;;;;;;;4.43;1.83;;;;;;;24.00;56.85;99456.53;5075220;28;20279;-87
2023/09/18 00:50:54;;;;;;;4.63;1.93;;;;;;;23.97;56.71;99454.19;5074657;28;20180;-87
2023/09/18 00:53:23;;;;;;;4.27;2.10;;;;;;;23.97;56.65;99452.34;5075172;28;20680;-87
2023/09/18 00:55:53;;;;;;;5.10;1.90;;;;;;;23.95;56.69;99448.97;5075498;28;20185;-87
2023/09/18 00:58:20;;;;;;;8.03;1.90;;;;;;;23.95;56.48;99445.47;5040198;28;20611;-87
2023/09/18 01:00:47;;;;;;;4.73;1.73;;;;;;;23.92;56.77;99451.13;5055033;28;20166;-87
2023/09/18 01:03:13;;;;;;;6.57;2.43;;;;;;;23.92;56.59;99443.09;5055826;28;20634;-87
2023/09/18 01:05:39;;;;;;;3.40;1.50;;;;;;;23.93;56.90;99450.13;5074904;28;20678;-87
2023/09/18 01:08:06;;;;;;;4.47;1.57;;;;;;;23.92;56.28;99446.63;5074776;28;20688;-87
2023/09/18 01:10:48;;;;;;;6.93;2.17;;;;;;;23.95;56.28;99448.16;5074591;28;20545;-87
2023/09/18 01:13:17;;;;;;;4.33;2.10;;;;;;;23.93;56.29;99439.41;5075036;28;20153;-87
2023/09/18 01:16:10;;;;;;;3.83;1.50;;;;;;;23.91;56.34;99442.25;5074576;28;20172;-87
2023/09/18 01:18:37;;;;;;;5.50;2.50;;;;;;;23.88;56.48;99441.72;5049808;28;20196;-87
2023/09/18 01:21:04;;;;;;;6.97;1.93;;;;;;;23.84;56.23;99428.69;5056751;28;20657;-87
2023/09/18 01:23:31;;;;;;;5.03;1.60;;;;;;;23.82;56.41;99429.81;5056933;28;20260;-87
2023/09/18 01:25:57;;;;;;;3.07;1.37;;;;;;;23.80;56.69;99429.97;5056592;28;20177;-87
2023/09/18 01:28:24;;;;;;;3.40;1.30;;;;;;;23.82;56.75;99424.44;5056786;28;20204;-87
2023/09/18 01:30:51;;;;;;;3.07;1.27;;;;;;;23.83;56.51;99428.81;5074408;28;20165;-87
2023/09/18 01:33:20;;;;;;;7.40;1.60;;;;;;;23.81;56.56;99426.31;5073986;28;20246;-87
2023/09/18 01:35:48;;;;;;;3.03;1.17;;;;;;;23.76;56.70;99425.94;5074103;28;20267;-88
2023/09/18 01:38:14;;;;;;;3.90;1.50;;;;;;;23.76;56.49;99425.09;5074179;28;20198;-87
2023/09/18 01:40:41;;;;;;;5.90;1.30;;;;;;;23.78;56.51;99431.97;5073995;28;20185;-87
2023/09/18 01:43:08;;;;;;;2.83;1.33;;;;;;;23.77;56.68;99432.09;5074128;28;20169;-87
2023/09/18 01:45:34;;;;;;;4.97;1.50;;;;;;;23.72;56.90;99431.75;5073999;28;20212;-88
2023/09/18 01:48:04;;;;;;;3.37;1.53;;;;;;;23.72;56.93;99435.25;5073943;28;20278;-87
2023/09/18 01:50:31;;;;;;;5.10;1.60;;;;;;;23.70;57.07;99439.09;5056409;28;20541;-87
2023/09/18 01:53:00;;;;;;;4.27;1.67;;;;;;;23.68;57.21;99441.94;5056551;28;20208;-87
2023/09/18 01:55:26;;;;;;;6.17;1.70;;;;;;;23.71;56.70;99441.63;5073852;28;20188;-87
2023/09/18 01:57:51;;;;;;;6.37;1.60;;;;;;;23.69;57.10;99437.41;5073621;28;20224;-88
2023/09/18 02:00:18;;;;;;;5.43;1.77;;;;;;;23.69;56.93;99443.59;5073546;28;20672;-87
2023/09/18 02:02:45;;;;;;;3.70;1.40;;;;;;;23.70;56.63;99442.63;5056114;28;20176;-87
2023/09/18 02:05:11;;;;;;;4.40;2.17;;;;;;;23.65;57.14;99436.91;5056148;28;20745;-87
2023/09/18 02:07:38;;;;;;;2.50;1.20;;;;;;;23.64;57.11;99439.72;5073508;28;20211;-87
2023/09/18 02:10:05;;;;;;;3.03;1.40;;;;;;;23.63;56.79;99438.91;5074260;28;20256;-87
2023/09/18 02:12:32;;;;;;;6.87;1.90;;;;;;;23.63;56.78;99441.56;5073241;28;20652;-87
2023/09/18 02:14:58;;;;;;;11.47;1.90;;;;;;;23.60;57.06;99444.56;5073620;28;20177;-88
2023/09/18 02:17:24;;;;;;;3.73;1.53;;;;;;;23.57;57.07;99434.16;5073829;28;20176;-87
2023/09/18 02:19:51;;;;;;;4.07;1.67;;;;;;;23.55;56.66;99433.47;5073211;28;20619;-87
2023/09/18 02:22:18;;;;;;;2.77;1.47;;;;;;;23.52;56.96;99435.63;5056235;28;20170;-87
2023/09/18 02:24:43;;;;;;;3.07;1.53;;;;;;;23.52;56.82;99431.09;5073167;28;20181;-87
2023/09/18 02:27:11;;;;;;;5.43;1.60;;;;;;;23.51;57.01;99441.94;5073412;28;20203;-87
2023/09/18 02:29:38;;;;;;;4.67;1.87;;;;;;;23.49;56.86;99435.91;5073385;28;20215;-87
2023/09/18 02:32:03;;;;;;;4.13;2.00;;;;;;;23.45;56.91;99430.06;5073208;28;20325;-87
2023/09/18 02:34:30;;;;;;;3.43;1.60;;;;;;;23.44;57.21;99439.06;5073637;28;20602;-87
2023/09/18 02:36:57;;;;;;;4.23;1.87;;;;;;;23.44;56.91;99444.41;5073107;28;20192;-87
2023/09/18 02:39:24;;;;;;;3.37;1.57;;;;;;;23.42;56.90;99435.72;5073242;28;20614;-87
2023/09/18 02:41:49;;;;;;;5.63;1.53;;;;;;;23.41;57.05;99444.72;5055255;28;20169;-88
2023/09/18 02:44:16;;;;;;;3.20;1.47;;;;;;;23.36;57.17;99449.66;5073228;28;20203;-87
2023/09/18 02:46:43;;;;;;;3.33;1.50;;;;;;;23.31;57.24;99448.44;5073176;28;20173;-87
2023/09/18 02:49:08;;;;;;;4.33;1.70;;;;;;;23.32;57.09;99450.97;5072912;28;20622;-87
2023/09/18 02:51:35;;;;;;;4.43;1.53;;;;;;;23.27;57.56;99450.56;5055418;28;20207;-87
2023/09/18 02:54:00;;;;;;;4.57;1.70;;;;;;;23.25;57.48;99447.22;5073083;28;20255;-87
2023/09/18 02:56:27;;;;;;;2.80;1.50;;;;;;;23.23;57.79;99446.53;5072935;28;20313;-87
2023/09/18 02:58:53;;;;;;;3.53;1.27;;;;;;;23.19;57.88;99451.34;5073092;28;20318;-87
2023/09/18 03:01:20;;;;;;;6.20;1.37;;;;;;;23.18;57.85;99446.16;5072863;28;20642;-87
2023/09/18 03:03:47;;;;;;;4.57;1.53;;;;;;;23.18;57.47;99438.13;5073256;28;20244;-87
2023/09/18 03:06:13;;;;;;;2.77;1.53;;;;;;;23.15;57.31;99444.63;5053283;28;20185;-87
2023/09/18 03:08:41;;;;;;;2.87;1.20;;;;;;;23.13;57.61;99451.13;5035418;28;20201;-87
2023/09/18 03:11:14;;;;;;;3.97;1.50;;;;;;;23.08;57.77;99448.06;5070338;28;20177;-87
2023/09/18 03:13:47;;;;;;;3.60;1.27;;;;;;;23.04;57.66;99457.38;5074026;28;20196;-87
2023/09/18 03:16:14;;;;;;;3.77;1.57;;;;;;;22.95;57.90;99452.94;5059338;28;20168;-87
2023/09/18 03:18:40;;;;;;;4.73;1.30;;;;;;;22.94;57.96;99456.59;5077172;28;20169;-87
2023/09/18 03:21:05;;;;;;;5.60;1.47;;;;;;;22.91;57.85;99459.56;5059344;28;20169;-87
2023/09/18 03:23:31;;;;;;;5.57;1.57;;;;;;;22.92;57.85;99455.91;5077050;28;20196;-87
2023/09/18 03:25:59;;;;;;;3.17;1.33;;;;;;;22.91;58.02;99459.56;5059505;28;20508;-87
2023/09/18 03:28:26;;;;;;;4.97;1.70;;;;;;;22.87;58.04;99461.72;5076576;28;20225;-87
2023/09/18 03:30:51;;;;;;;4.73;1.80;;;;;;;22.83;58.03;99459.47;5076746;28;20177;-87
2023/09/18 03:33:18;;;;;;;3.40;1.63;;;;;;;22.83;57.96;99457.66;5059366;28;20254;-87
2023/09/18 03:35:54;;;;;;;4.37;1.70;;;;;;;22.82;58.41;99458.66;5076787;28;20172;-87
2023/09/18 03:38:20;;;;;;;4.50;1.60;;;;;;;22.79;58.31;99458.97;5058850;28;20169;-87
2023/09/18 03:40:47;;;;;;;3.20;1.63;;;;;;;22.77;57.97;99468.97;5076527;28;20173;-87
2023/09/18 03:43:12;;;;;;;4.80;1.87;;;;;;;22.72;58.13;99457.03;5076499;28;20181;-87
2023/09/18 03:45:40;;;;;;;3.47;1.53;;;;;;;22.66;58.37;99460.28;5058762;28;20605;-87
2023/09/18 03:48:07;;;;;;;3.60;1.70;;;;;;;22.61;58.74;99460.72;5058385;28;20201;-87
2023/09/18 03:50:33;;;;;;;5.90;2.20;;;;;;;22.59;58.85;99454.66;5058752;28;20176;-88
2023/09/18 03:53:00;;;;;;;3.83;1.37;;;;;;;22.55;58.62;99459.47;5076224;28;20634;-87
2023/09/18 03:55:27;;;;;;;3.33;1.60;;;;;;;22.53;58.98;99458.78;5076838;28;20177;-87
2023/09/18 03:57:52;;;;;;;4.43;1.93;;;;;;;22.53;58.78;99463.28;5058435;28;20181;-87
2023/09/18 04:00:18;;;;;;;4.83;1.73;;;;;;;22.52;58.73;99461.59;5076105;28;20172;-87
2023/09/18 04:02:44;;;;;;;3.87;1.37;;;;;;;22.50;58.89;99469.78;5050326;28;20219;-87
2023/09/18 04:05:10;;;;;;;7.40;1.80;;;;;;;22.48;58.74;99476.25;5076959;28;20169;-87
2023/09/18 04:07:38;;;;;;;8.60;1.67;;;;;;;22.45;59.09;99477.38;5076206;28;20268;-88
2023/09/18 04:10:05;;;;;;;3.73;1.30;;;;;;;22.43;59.01;99475.84;5075830;28;20181;-88
2023/09/18 04:12:31;;;;;;;6.00;1.57;;;;;;;22.44;59.17;99475.69;5076185;28;20335;-87
2023/09/18 04:14:57;;;;;;;3.57;1.53;;;;;;;22.48;59.04;99479.75;5075901;28;20165;-87
2023/09/18 04:17:23;;;;;;;8.77;1.60;;;;;;;22.50;58.96;99468.94;5057822;28;20181;-87
2023/09/18 04:19:50;;;;;;;4.73;1.50;;;;;;;22.48;59.11;99469.06;5076114;28;20661;-87
2023/09/18 04:22:16;;;;;;;5.47;1.63;;;;;;;22.44;59.16;99475.69;5075644;28;20173;-87
2023/09/18 04:24:42;;;;;;;6.03;2.00;;;;;;;22.43;59.21;99481.19;5075161;28;20176;-87
2023/09/18 04:27:08;;;;;;;10.63;4.83;;;;;;;22.41;59.17;99478.66;5058130;28;20193;-87
2023/09/18 04:29:35;;;;;;;20.67;9.77;;;;;;;22.40;59.24;99479.66;5058292;28;20169;-88
2023/09/18 04:32:04;;;;;;;41.57;17.77;;;;;;;22.39;59.63;99480.63;5075475;28;20267;-87
2023/09/18 04:34:29;;;;;;;46.00;20.43;;;;;;;22.40;59.70;99478.81;5075555;28;20181;-87
2023/09/18 04:36:56;;;;;;;62.70;27.47;;;;;;;22.42;59.66;99484.84;5058219;28;20173;-87
2023/09/18 04:39:22;;;;;;;76.23;32.63;;;;;;;22.41;59.61;99481.31;5057721;28;20557;-87
2023/09/18 04:41:48;;;;;;;77.33;32.83;;;;;;;22.46;59.45;99470.19;5075395;28;20169;-87
2023/09/18 04:44:14;;;;;;;64.80;27.50;;;;;;;22.49;59.63;99478.75;5076468;28;20180;-87
2023/09/18 04:46:54;;;;;;;51.93;23.97;;;;;;;22.52;59.51;99473.13;5055277;28;20177;-87
2023/09/18 04:49:39;;;;;;;49.07;21.57;;;;;;;22.57;59.64;99478.88;5038056;28;20181;-87
2023/09/18 04:52:05;;;;;;;40.57;18.60;;;;;;;22.63;59.39;99478.31;5055706;28;20189;-87
2023/09/18 04:54:32;;;;;;;33.90;14.33;;;;;;;22.67;59.51;99475.34;5075490;28;20636;-87
2023/09/18 04:56:59;;;;;;;28.70;11.47;;;;;;;22.68;59.59;99475.19;5074897;28;20268;-87
2023/09/18 04:59:25;;;;;;;23.13;10.17;;;;;;;22.69;59.64;99476.03;5075054;28;20257;-87
2023/09/18 05:01:52;;;;;;;14.27;7.00;;;;;;;22.73;59.61;99474.72;5074872;28;20177;-87
2023/09/18 05:04:18;;;;;;;13.23;5.33;;;;;;;22.77;59.45;99476.13;5074686;28;20185;-87
2023/09/18 05:06:45;;;;;;;14.70;4.60;;;;;;;22.85;59.20;99478.91;5074913;28;20188;-87
2023/09/18 05:09:12;;;;;;;8.40;3.90;;;;;;;22.88;59.19;99473.22;5074638;28;20409;-87
2023/09/18 05:11:41;;;;;;;7.80;3.67;;;;;;;22.99;59.36;99475.69;5074868;28;20239;-87
2023/09/18 05:14:08;;;;;;;7.23;3.23;;;;;;;23.13;58.81;99477.88;5075386;28;20169;-87
2023/09/18 05:16:33;;;;;;;4.50;2.40;;;;;;;23.23;58.14;99468.78;5075368;28;20173;-87
2023/09/18 05:18:59;;;;;;;6.80;2.47;;;;;;;23.35;57.54;99473.91;5074709;28;20581;-87
2023/09/18 05:21:26;;;;;;;6.20;2.47;;;;;;;23.48;57.74;99467.19;5074666;28;20179;-87
2023/09/18 05:23:53;;;;;;;5.00;2.37;;;;;;;23.67;57.64;99472.38;5074867;28;20565;-87
2023/09/18 05:26:19;;;;;;;7.43;2.50;;;;;;;23.89;56.61;99464.84;5074571;28;20250;-88
2023/09/18 05:28:44;;;;;;;4.20;2.00;;;;;;;24.07;56.14;99476.34;5074462;28;20658;-87
2023/09/18 05:31:09;;;;;;;5.20;1.70;;;;;;;24.26;54.82;99468.13;5074760;28;20591;-87
2023/09/18 05:33:35;;;;;;;6.13;1.80;;;;;;;24.42;54.86;99473.56;5056755;28;20264;-87
2023/09/18 05:36:00;;;;;;;3.40;1.70;;;;;;;24.56;54.38;99470.25;5057209;28;20185;-87
2023/09/18 05:38:26;;;;;;;4.03;1.67;;;;;;;24.59;54.63;99474.47;5074143;28;20165;-87
2023/09/18 05:40:51;;;;;;;8.43;2.00;;;;;;;24.64;53.50;99474.81;5056490;28;20663;-88
2023/09/18 05:43:18;;;;;;;4.63;2.13;;;;;;;24.70;53.36;99482.22;5074519;28;20177;-87
2023/09/18 05:45:44;;;;;;;5.03;1.70;;;;;;;24.76;53.32;99477.06;5056306;28;20203;-87
2023/09/18 05:48:11;;;;;;;7.47;2.00;;;;;;;24.88;52.65;99481.16;5074048;28;20197;-88
2023/09/18 05:50:36;;;;;;;5.63;2.63;;;;;;;24.92;52.78;99487.84;5073641;28;20615;-87
2023/09/18 05:53:03;;;;;;;4.33;1.63;;;;;;;25.03;52.11;99482.19;5056191;28;20188;-88
2023/09/18 05:55:34;;;;;;;6.33;1.87;;;;;;;25.17;52.26;99480.72;5073872;28;20192;-87
2023/09/18 05:58:00;;;;;;;4.37;1.77;;;;;;;25.41;51.92;99482.59;5073634;28;20258;-87
2023/09/18 06:00:26;;;;;;;12.23;2.53;;;;;;;25.78;51.15;99485.66;5073890;28;20635;-87
2023/09/18 06:02:53;;;;;;;6.70;2.97;;;;;;;26.28;49.88;99481.94;5073978;28;20177;-88
2023/09/18 06:05:21;;;;;;;11.63;2.77;;;;;;;26.80;48.80;99470.50;5073536;28;20178;-87
2023/09/18 06:07:51;;;;;;;9.83;4.10;;;;;;;27.30;46.24;99480.81;5073659;28;20250;-87
2023/09/18 06:10:18;;;;;;;8.83;4.57;;;;;;;27.95;45.09;99475.75;5073816;28;20234;-87
2023/09/18 06:12:45;;;;;;;9.03;3.70;;;;;;;28.44;44.08;99472.56;5073203;28;20185;-87
2023/09/18 06:15:12;;;;;;;7.57;4.00;;;;;;;28.85;41.96;99475.63;5073643;28;20556;-88
2023/09/18 06:17:41;;;;;;;9.63;4.10;;;;;;;29.42;41.45;99481.91;5073887;28;20169;-88
2023/09/18 06:20:09;;;;;;;10.05;3.42;;;;;;;30.10;40.15;99483.16;5055864;28;20238;-88
2023/09/18 06:22:35;;;;;;;6.47;3.05;;;;;;;30.83;38.41;99475.28;5073554;28;20598;-88
2023/09/18 06:25:01;;;;;;;5.10;2.33;;;;;;;31.23;37.52;99470.88;5055791;28;20181;-88
2023/09/18 06:27:26;;;;;;;4.82;2.47;;;;;;;31.52;36.10;99483.25;5073347;28;20259;-88
2023/09/18 06:29:52;;;;;;;7.05;2.65;;;;;;;31.54;36.41;99489.31;5073647;28;20246;-87
2023/09/18 06:32:19;;;;;;;7.78;2.60;;;;;;;31.78;36.50;99482.44;5055658;28;20573;-88
2023/09/18 06:34:47;;;;;;;6.25;2.40;;;;;;;32.16;35.93;99481.63;5073651;28;20173;-88
2023/09/18 06:37:14;;;;;;;5.90;2.25;;;;;;;32.45;34.74;99480.31;5073502;28;20604;-88
2023/09/18 06:39:39;;;;;;;4.32;2.40;;;;;;;32.84;35.55;99484.00;5073030;28;20189;-89
2023/09/18 06:42:06;;;;;;;4.95;2.25;;;;;;;33.04;33.72;99479.28;5055557;28;20233;-89
2023/09/18 06:44:32;;;;;;;8.38;2.30;;;;;;;32.93;33.80;99488.13;5055513;28;20217;-89
2023/09/18 06:46:58;;;;;;;4.07;1.45;;;;;;;32.54;33.89;99487.22;5073444;28;20211;-88
2023/09/18 06:49:25;;;;;;;3.33;1.30;;;;;;;32.56;34.01;99493.25;5055153;28;20176;-89
2023/09/18 06:51:52;;;;;;;2.75;1.33;;;;;;;32.65;33.84;99496.59;5040012;28;20549;-89
2023/09/18 06:54:19;;;;;;;4.25;1.40;;;;;;;32.59;33.90;99487.41;5053128;28;20174;-89
2023/09/18 06:56:44;;;;;;;2.30;1.00;;;;;;;32.89;34.01;99493.13;5055689;28;20220;-89
2023/09/18 06:59:14;;;;;;;4.53;1.33;;;;;;;33.01;32.79;99486.00;5073397;28;20632;-88
2023/09/18 07:01:42;;;;;;;2.58;0.80;;;;;;;32.92;33.46;99498.13;5072906;28;20273;-89
2023/09/18 07:04:09;;;;;;;4.10;1.10;;;;;;;32.89;33.89;99497.75;5073387;28;20188;-89
2023/09/18 07:06:35;;;;;;;2.65;1.02;;;;;;;33.12;33.70;99489.94;5055422;28;20177;-89
2023/09/18 07:09:04;;;;;;;2.40;0.95;;;;;;;33.46;32.85;99489.53;5072811;28;20329;-89
2023/09/18 07:11:31;;;;;;;4.30;1.13;;;;;;;33.54;33.09;99485.72;5072983;28;20650;-89
2023/09/18 07:13:56;;;;;;;3.38;1.20;;;;;;;33.47;31.95;99491.19;5055333;28;20173;-89
2023/09/18 07:16:24;;;;;;;3.35;1.42;;;;;;;33.15;33.74;99487.59;5072913;28;20268;-89
2023/09/18 07:18:51;;;;;;;2.67;1.05;;;;;;;33.14;32.28;99487.84;5055294;28;20176;-89
2023/09/18 07:21:17;;;;;;;1.98;1.00;;;;;;;33.12;33.46;99476.38;5072886;28;20273;-90
2023/09/18 07:23:45;;;;;;;3.20;1.02;;;;;;;33.00;33.53;99484.31;5072916;28;20224;-89
2023/09/18 07:26:10;;;;;;;3.53;1.30;;;;;;;33.01;33.37;99491.44;5072833;28;20176;-89
2023/09/18 07:28:38;;;;;;;4.22;1.40;;;;;;;32.94;33.24;99489.78;5072500;28;20193;-89
2023/09/18 07:31:09;;;;;;;3.05;1.33;;;;;;;32.75;33.18;99496.97;5073035;28;20534;-89
2023/09/18 07:33:35;;;;;;;2.90;1.20;;;;;;;32.78;33.58;99488.41;5072750;28;20169;-89
2023/09/18 07:36:01;;;;;;;2.95;1.02;;;;;;;32.64;34.22;99487.59;5072412;28;20177;-89
2023/09/18 07:38:28;;;;;;;2.40;1.08;;;;;;;32.72;33.79;99489.25;5055059;28;20238;-89
2023/09/18 07:40:53;;;;;;;3.35;1.13;;;;;;;32.97;32.84;99479.31;5072468;28;20180;-89
2023/09/18 07:43:20;;;;;;;5.60;1.33;;;;;;;33.07;33.95;99484.34;5055599;28;20169;-90
2023/09/18 07:45:49;;;;;;;3.10;1.10;;;;;;;33.13;32.63;99495.16;5055256;28;20184;-89
2023/09/18 07:48:19;;;;;;;2.65;1.13;;;;;;;33.10;32.36;99492.88;5072311;28;20207;-89
2023/09/18 07:50:46;;;;;;;2.58;1.33;;;;;;;32.98;31.95;99486.44;5072915;28;20638;-89
2023/09/18 07:53:13;;;;;;;2.58;0.90;;;;;;;32.64;32.41;99494.91;5072591;28;20173;-89
2023/09/18 07:55:38;;;;;;;4.57;0.70;;;;;;;32.65;32.93;99485.72;5071987;28;20634;-89
2023/09/18 07:58:05;;;;;;;2.15;0.80;;;;;;;32.70;32.40;99488.63;5072392;28;20188;-89
2023/09/18 08:00:33;;;;;;;2.78;0.90;;;;;;;32.52;31.41;99483.03;5056841;28;20726;-89
2023/09/18 08:03:00;;;;;;;3.35;0.80;;;;;;;32.42;31.62;99485.31;5075829;28;20212;-88
2023/09/18 08:05:28;;;;;;;2.75;1.10;;;;;;;32.37;32.26;99480.53;5076368;28;20173;-88
2023/09/18 08:07:56;;;;;;;2.17;1.00;;;;;;;32.31;31.48;99483.28;5058500;28;20676;-89
2023/09/18 08:10:23;;;;;;;1.48;0.75;;;;;;;31.99;31.47;99477.69;5058957;28;20212;-90
2023/09/18 08:12:52;;;;;;;1.77;0.80;;;;;;;31.90;31.74;99481.59;5076503;28;20173;-88
2023/09/18 08:15:20;;;;;;;4.20;0.80;;;;;;;31.95;32.17;99483.69;5075740;28;20203;-88
2023/09/18 08:17:49;;;;;;;4.45;1.30;;;;;;;31.64;32.64;99481.59;5075874;28;20169;-88
2023/09/18 08:20:15;;;;;;;2.17;0.88;;;;;;;31.69;32.89;99478.25;5058687;28;20246;-89
2023/09/18 08:22:42;;;;;;;2.92;0.95;;;;;;;31.55;32.06;99482.84;5057976;28;20312;-87
2023/09/18 08:25:10;;;;;;;3.67;1.00;;;;;;;31.54;32.19;99482.00;5058419;28;20304;-89
2023/09/18 08:27:43;;;;;;;3.38;1.10;;;;;;;31.54;32.54;99471.16;5058160;28;20246;-88
2023/09/18 08:30:10;;;;;;;3.47;1.30;;;;;;;31.12;32.47;99481.47;5075782;28;20157;-87
2023/09/18 08:32:38;;;;;;;2.80;1.10;;;;;;;31.12;33.01;99473.34;5075587;28;20165;-87
2023/09/18 08:35:06;;;;;;;2.58;1.00;;;;;;;31.41;33.37;99464.88;5075500;28;20607;-88
2023/09/18 08:37:31;;;;;;;2.00;1.00;;;;;;;31.63;33.03;99465.56;5075375;28;20191;-88
2023/09/18 08:39:57;;;;;;;6.40;2.28;;;;;;;31.40;32.53;99465.88;5057802;28;20180;-87
2023/09/18 08:42:24;;;;;;;2.45;1.00;;;;;;;31.68;31.71;99458.47;5057837;28;20671;-88
2023/09/18 08:44:53;;;;;;;4.07;0.95;;;;;;;32.07;30.84;99453.06;5075645;28;20531;-88
2023/09/18 08:47:20;;;;;;;6.90;1.83;;;;;;;32.18;31.35;99448.88;5057746;28;20208;-88
2023/09/18 08:49:49;;;;;;;3.42;2.00;;;;;;;32.31;30.01;99450.72;5057739;28;20176;-89
2023/09/18 08:52:16;;;;;;;4.05;1.30;;;;;;;32.31;29.74;99445.28;5075258;28;20169;-88
2023/09/18 08:54:44;;;;;;;4.82;1.40;;;;;;;32.54;30.30;99440.25;5057418;28;20258;-88
2023/09/18 08:57:11;;;;;;;2.53;1.27;;;;;;;32.63;30.51;99447.06;5075730;28;20676;-88
2023/09/18 08:59:40;;;;;;;5.03;1.33;;;;;;;32.37;30.65;99439.81;5075389;28;20256;-88
2023/09/18 09:02:11;;;;;;;2.63;1.00;;;;;;;32.51;29.96;99435.19;5057591;28;20185;-88
2023/09/18 09:04:38;;;;;;;3.58;1.25;;;;;;;32.70;28.62;99434.34;5057353;28;20173;-88
2023/09/18 09:07:04;;;;;;;3.92;1.60;;;;;;;32.70;29.10;99434.34;5074806;28;20173;-88
2023/09/18 09:09:31;;;;;;;6.13;1.92;;;;;;;32.45;28.99;99436.03;5075238;28;20179;-88
2023/09/18 09:11:58;;;;;;;2.10;0.93;;;;;;;32.29;29.13;99437.34;5074143;28;20515;-89
2023/09/18 09:14:30;;;;;;;2.70;1.20;;;;;;;32.35;29.94;99427.53;5057003;28;20185;-90
2023/09/18 09:16:57;;;;;;;2.88;1.15;;;;;;;32.28;27.50;99424.84;5075068;28;20599;-89
2023/09/18 09:19:38;;;;;;;5.47;1.05;;;;;;;32.53;27.74;99433.13;5056966;28;20173;-89
2023/09/18 09:22:05;;;;;;;2.10;0.80;;;;;;;32.17;28.56;99423.63;5056666;28;20230;-88
2023/09/18 09:24:44;;;;;;;2.72;1.10;;;;;;;32.35;27.99;99417.50;5075281;28;20238;-88
2023/09/18 09:27:10;;;;;;;2.38;1.00;;;;;;;32.18;27.61;99411.69;5074360;28;20176;-87
2023/09/18 09:29:37;;;;;;;2.95;1.05;;;;;;;32.22;29.32;99417.53;5075029;28;20535;-88
2023/09/18 09:32:17;;;;;;;2.45;0.98;;;;;;;32.45;28.36;99412.47;5074488;28;20177;-89
2023/09/18 09:34:46;;;;;;;3.88;1.23;;;;;;;32.60;28.61;99412.25;5074207;28;20545;-89
2023/09/18 09:37:13;;;;;;;3.67;1.30;;;;;;;32.81;28.06;99412.75;5074363;28;20238;-88
2023/09/18 09:39:49;;;;;;;2.60;1.17;;;;;;;32.56;27.18;99409.13;5074119;28;20177;-87
2023/09/18 09:42:24;;;;;;;2.15;0.80;;;;;;;32.60;28.12;99401.38;5074645;28;20181;-88
2023/09/18 09:45:03;;;;;;;3.10;1.23;;;;;;;32.62;27.36;99400.13;5074808;28;20159;-88
2023/09/18 09:47:39;;;;;;;3.80;1.65;;;;;;;32.54;28.92;99403.06;5074151;28;20200;-88
2023/09/18 09:50:25;;;;;;;3.00;1.20;;;;;;;32.73;29.06;99395.91;5074354;28;20600;-89
2023/09/18 09:52:52;;;;;;;3.85;1.35;;;;;;;32.63;28.99;99398.22;5074234;28;20617;-88
2023/09/18 09:55:34;;;;;;;2.50;1.23;;;;;;;32.89;28.75;99397.28;5056933;28;20263;-88
2023/09/18 09:58:04;;;;;;;2.67;1.35;;;;;;;32.96;27.43;99396.19;5073811;28;20746;-88
2023/09/18 10:00:48;;;;;;;2.63;1.40;;;;;;;32.79;27.32;99395.00;5073882;28;20547;-89
2023/09/18 10:03:17;;;;;;;2.58;1.08;;;;;;;32.53;27.19;99389.69;5074170;28;20214;-87
2023/09/18 10:05:45;;;;;;;3.08;1.00;;;;;;;32.64;28.21;99391.75;5073751;28;20203;-88
2023/09/18 10:08:21;;;;;;;3.22;1.25;;;;;;;32.79;29.12;99384.16;5055719;28;20205;-88
2023/09/18 10:10:50;;;;;;;3.20;1.20;;;;;;;33.02;27.44;99367.31;5073624;28;20229;-90
2023/09/18 10:13:26;;;;;;;2.60;1.30;;;;;;;32.36;27.77;99383.06;5073322;28;20242;-87
2023/09/18 10:15:56;;;;;;;2.75;1.25;;;;;;;32.60;27.90;99385.09;5056053;28;20621;-88
2023/09/18 10:18:31;;;;;;;3.35;1.30;;;;;;;32.83;27.59;99379.13;5055560;28;20546;-88
2023/09/18 10:21:10;;;;;;;2.92;1.30;;;;;;;32.98;26.54;99372.34;5056007;28;20211;-88
2023/09/18 10:23:53;;;;;;;2.13;0.82;;;;;;;32.91;26.59;99371.56;5072722;28;20229;-90
2023/09/18 10:26:33;;;;;;;3.28;1.35;;;;;;;32.73;26.56;99371.47;5073688;28;20255;-88
2023/09/18 10:29:03;;;;;;;4.00;1.20;;;;;;;32.56;27.68;99378.41;5073165;28;20646;-87
2023/09/18 10:31:32;;;;;;;2.60;1.38;;;;;;;32.89;26.81;99376.34;5073580;28;20180;-87
2023/09/18 10:34:01;;;;;;;3.80;1.27;;;;;;;32.40;26.69;99359.88;5056063;28;20185;-87
2023/09/18 10:36:29;;;;;;;2.53;1.05;;;;;;;32.23;27.31;99376.63;5073197;28;20268;-87
2023/09/18 10:38:56;;;;;;;2.13;1.13;;;;;;;32.78;26.31;99360.78;5055570;28;20196;-88
2023/09/18 10:41:25;;;;;;;1.95;0.90;;;;;;;33.18;26.53;99356.75;5055877;28;20547;-88
2023/09/18 10:43:53;;;;;;;3.47;1.58;;;;;;;33.28;26.75;99354.38;5055674;28;20321;-88
2023/09/18 10:46:21;;;;;;;3.60;1.40;;;;;;;32.85;26.87;99353.41;5055227;28;20189;-86
2023/09/18 10:48:48;;;;;;;2.63;1.30;;;;;;;32.90;26.40;99348.16;5073394;28;20193;-87
2023/09/18 10:51:20;;;;;;;4.68;1.48;;;;;;;33.01;26.52;99347.47;5073131;28;20261;-88
2023/09/18 10:53:48;;;;;;;2.53;1.48;;;;;;;33.21;25.26;99350.88;5073162;28;20184;-86
2023/09/18 10:56:17;;;;;;;3.28;1.10;;;;;;;32.92;26.35;99354.19;5073327;28;20595;-88
2023/09/18 10:58:43;;;;;;;4.38;1.45;;;;;;;32.83;26.00;99358.25;5072803;28;20217;-88
2023/09/18 11:01:13;;;;;;;3.33;1.25;;;;;;;32.80;26.12;99345.94;5073062;28;20230;-88
2023/09/18 11:03:41;;;;;;;2.92;1.25;;;;;;;33.12;26.61;99333.22;5073381;28;20255;-88
2023/09/18 11:06:12;;;;;;;3.08;1.25;;;;;;;33.30;25.59;99340.59;5055721;28;20537;-89
2023/09/18 11:08:46;;;;;;;2.63;1.38;;;;;;;33.44;25.93;99333.97;5056517;28;20198;-88
2023/09/18 11:11:19;;;;;;;5.30;1.65;;;;;;;33.31;25.71;99326.75;5055660;28;20242;-87
2023/09/18 11:13:49;;;;;;;6.35;1.35;;;;;;;32.95;25.59;99329.31;5055360;28;20622;-87
2023/09/18 11:16:27;;;;;;;3.78;1.60;;;;;;;33.49;25.06;99331.44;5073234;28;20517;-87
2023/09/18 11:19:08;;;;;;;5.07;1.98;;;;;;;33.82;24.34;99328.41;5055599;28;20176;-89
2023/09/18 11:21:35;;;;;;;3.08;1.33;;;;;;;33.78;24.88;99330.75;5055290;28;20652;-89
2023/09/18 11:24:11;;;;;;;2.25;1.17;;;;;;;33.86;24.05;99338.59;5072894;28;20260;-88
2023/09/18 11:26:40;;;;;;;2.55;1.38;;;;;;;33.95;23.72;99320.09;5056061;28;20563;-89
2023/09/18 11:29:15;;;;;;;2.92;1.35;;;;;;;34.13;23.53;99317.41;5054711;28;20197;-88
2023/09/18 11:31:55;;;;;;;3.55;1.70;;;;;;;33.99;24.54;99307.69;5072861;28;20214;-88
2023/09/18 11:34:39;;;;;;;5.60;1.60;;;;;;;34.34;23.43;99314.22;5055251;28;20192;-88
2023/09/18 11:37:21;;;;;;;4.18;1.95;;;;;;;34.27;24.51;99302.59;5076679;28;20215;-88